Time;durP1;ratioP1;P1;durP2;ratioP2;P2;SDS_P1;SDS_P2;PMS_P1;PMS_P2;Temp;Humidity;BMP_temperature;BMP_pressure;BME280_temperature;BME280_humidity;BME280_pressure;Samples;Min_cycle;Max_cycle;Signal;HPM_P1;HPM_P2
2023/05/06 00:01:02;;;;;;;2.08;1.90;;;21.70;1.00;;;;;;5033300;28;20471;-65
2023/05/06 00:03:28;;;;;;;2.70;1.80;;;21.60;1.00;;;;;;5031157;28;20108;-65
2023/05/06 00:05:55;;;;;;;3.55;1.52;;;21.60;1.00;;;;;;5033209;28;20032;-65
2023/05/06 00:08:21;;;;;;;2.90;1.77;;;21.60;1.00;;;;;;5031675;28;20352;-65
2023/05/06 00:10:47;;;;;;;2.10;1.80;;;21.60;1.00;;;;;;5033125;28;20090;-66
2023/05/06 00:13:12;;;;;;;2.00;1.80;;;21.60;1.00;;;;;;5031563;28;20030;-65
2023/05/06 00:15:38;;;;;;;3.35;1.80;;;21.60;1.00;;;;;;5033121;28;20410;-65
2023/05/06 00:18:05;;;;;;;2.65;1.80;;;21.40;1.00;;;;;;5032181;28;20079;-65
2023/05/06 00:20:31;;;;;;;2.00;1.88;;;21.30;1.00;;;;;;5031458;28;20037;-65
2023/05/06 00:22:57;;;;;;;2.42;1.77;;;21.40;1.00;;;;;;5032842;28;20040;-65
2023/05/06 00:25:23;;;;;;;1.92;1.83;;;21.40;1.00;;;;;;5032404;28;20026;-65
2023/05/06 00:27:48;;;;;;;2.53;1.70;;;21.30;1.00;;;;;;5032352;28;20033;-65
2023/05/06 00:30:14;;;;;;;1.80;1.70;;;21.30;1.00;;;;;;5032318;28;20116;-65
2023/05/06 00:32:40;;;;;;;3.20;1.70;;;21.40;1.00;;;;;;5042781;28;20451;-65
2023/05/06 00:35:06;;;;;;;2.78;1.98;;;21.40;1.00;;;;;;5044972;28;20037;-65
2023/05/06 00:37:31;;;;;;;1.75;1.63;;;21.30;1.00;;;;;;5032170;28;20033;-65
2023/05/06 00:39:57;;;;;;;3.22;1.70;;;21.30;1.00;;;;;;5044812;28;20518;-65
2023/05/06 00:42:23;;;;;;;2.88;2.28;;;21.30;1.00;;;;;;5033772;28;20479;-65
2023/05/06 00:44:50;;;;;;;1.98;1.70;;;21.30;1.00;;;;;;5033004;28;20025;-65
2023/05/06 00:47:16;;;;;;;3.03;1.38;;;21.30;1.00;;;;;;5041552;28;20025;-65
2023/05/06 00:49:42;;;;;;;2.08;1.67;;;21.20;1.00;;;;;;5032934;28;20030;-65
2023/05/06 00:52:08;;;;;;;1.52;1.42;;;21.20;1.00;;;;;;5031383;28;20033;-65
2023/05/06 00:54:34;;;;;;;2.13;1.45;;;21.20;1.00;;;;;;5032521;28;20442;-65
2023/05/06 00:57:01;;;;;;;2.35;1.80;;;21.20;1.00;;;;;;5032202;28;20021;-65
2023/05/06 00:59:27;;;;;;;2.28;1.83;;;21.20;1.00;;;;;;5032677;28;20041;-65
2023/05/06 01:01:53;;;;;;;2.10;1.45;;;21.20;1.00;;;;;;5032323;28;20033;-65
2023/05/06 01:04:21;;;;;;;3.05;1.88;;;21.10;1.00;;;;;;5030521;28;20364;-65
2023/05/06 01:06:57;;;;;;;1.67;1.58;;;21.10;1.00;;;;;;5032946;28;20075;-65
2023/05/06 01:09:44;;;;;;;2.20;1.98;;;21.10;1.00;;;;;;5031583;28;20033;-65
2023/05/06 01:12:26;;;;;;;1.63;1.50;;;21.00;1.00;;;;;;5029678;28;20079;-65
2023/05/06 01:15:07;;;;;;;2.30;1.80;;;21.00;1.00;;;;;;5031265;28;20029;-65
2023/05/06 01:17:37;;;;;;;3.25;1.83;;;21.00;1.00;;;;;;5034613;28;20053;-65
2023/05/06 01:20:05;;;;;;;4.85;1.90;;;20.90;1.00;;;;;;5034898;28;20033;-65
2023/05/06 01:22:33;;;;;;;1.80;1.58;;;20.90;1.00;;;;;;5034217;28;20040;-64
2023/05/06 01:24:58;;;;;;;2.22;1.98;;;21.00;1.00;;;;;;5033368;28;20025;-65
2023/05/06 01:27:24;;;;;;;3.67;1.60;;;20.80;1.00;;;;;;5033184;28;20083;-64
2023/05/06 01:29:49;;;;;;;2.58;2.22;;;20.90;1.00;;;;;;5033016;28;20103;-65
2023/05/06 01:32:18;;;;;;;1.85;1.65;;;20.90;1.00;;;;;;5034556;28;20029;-65
2023/05/06 01:34:49;;;;;;;2.42;1.58;;;20.90;1.00;;;;;;5034162;28;20044;-65
2023/05/06 01:37:37;;;;;;;5.93;2.17;;;20.90;1.00;;;;;;5020378;28;20109;-65
2023/05/06 01:40:04;;;;;;;1.58;1.48;;;20.90;1.00;;;;;;5032313;28;20514;-65
2023/05/06 01:42:31;;;;;;;2.20;1.50;;;20.80;1.00;;;;;;5034104;28;20026;-65
2023/05/06 01:45:01;;;;;;;2.85;1.50;;;20.90;1.00;;;;;;5035363;28;20054;-65
2023/05/06 01:47:26;;;;;;;1.75;1.65;;;20.80;1.00;;;;;;5034662;28;20033;-66
2023/05/06 01:49:52;;;;;;;3.42;1.40;;;20.80;1.00;;;;;;5021756;28;20109;-65
2023/05/06 01:52:20;;;;;;;1.42;1.27;;;20.80;1.00;;;;;;5034233;28;20120;-65
2023/05/06 01:54:46;;;;;;;4.82;1.73;;;20.70;1.00;;;;;;5034936;28;20021;-65
2023/05/06 01:57:12;;;;;;;3.05;1.90;;;20.70;1.00;;;;;;5033662;28;20040;-65
2023/05/06 01:59:37;;;;;;;2.53;2.05;;;20.70;1.00;;;;;;5033621;28;20025;-65
2023/05/06 02:02:03;;;;;;;2.80;1.85;;;20.70;1.00;;;;;;5035082;28;20050;-65
2023/05/06 02:04:29;;;;;;;2.05;1.77;;;20.70;1.00;;;;;;5034779;28;20029;-65
2023/05/06 02:06:55;;;;;;;1.50;1.40;;;20.70;1.00;;;;;;5035662;28;20020;-65
2023/05/06 02:09:21;;;;;;;2.53;1.60;;;20.60;1.00;;;;;;5032684;28;20071;-65
2023/05/06 02:11:46;;;;;;;2.03;1.85;;;20.60;1.00;;;;;;5036552;28;20037;-65
2023/05/06 02:14:12;;;;;;;1.60;1.48;;;20.60;1.00;;;;;;5034395;28;20017;-65
2023/05/06 02:16:38;;;;;;;1.77;1.30;;;20.60;1.00;;;;;;5033938;28;20014;-65
2023/05/06 02:19:05;;;;;;;1.42;1.33;;;20.50;1.00;;;;;;5032882;28;20022;-65
2023/05/06 02:21:30;;;;;;;1.95;1.58;;;20.70;1.00;;;;;;5034356;28;20045;-65
2023/05/06 02:23:56;;;;;;;2.95;1.50;;;20.60;1.00;;;;;;5034165;28;20487;-65
2023/05/06 02:26:22;;;;;;;3.45;1.40;;;20.60;1.00;;;;;;5034101;28;20057;-66
2023/05/06 02:28:47;;;;;;;2.10;1.27;;;20.50;1.00;;;;;;5035409;28;20493;-65
2023/05/06 02:31:16;;;;;;;3.40;1.38;;;20.40;1.00;;;;;;5035120;28;20033;-65
2023/05/06 02:33:43;;;;;;;3.40;1.67;;;20.40;1.00;;;;;;5034855;28;20436;-65
2023/05/06 02:36:09;;;;;;;1.30;1.10;;;20.40;1.00;;;;;;5034814;28;20079;-65
2023/05/06 02:38:35;;;;;;;2.70;1.60;;;20.40;1.00;;;;;;5031250;28;20022;-65
2023/05/06 02:41:00;;;;;;;1.77;1.65;;;20.40;1.00;;;;;;5033887;28;20045;-65
2023/05/06 02:43:26;;;;;;;2.58;1.50;;;20.40;1.00;;;;;;5034793;28;20034;-65
2023/05/06 02:45:52;;;;;;;2.88;1.50;;;20.40;1.00;;;;;;5034333;28;20057;-66
2023/05/06 02:48:18;;;;;;;2.13;1.60;;;20.40;1.00;;;;;;5032952;28;20021;-65
2023/05/06 02:50:44;;;;;;;2.42;1.70;;;20.40;1.00;;;;;;5034376;28;20387;-65
2023/05/06 02:53:11;;;;;;;2.20;1.73;;;20.40;1.00;;;;;;5033828;28;20033;-65
2023/05/06 02:55:37;;;;;;;2.13;1.55;;;20.30;1.00;;;;;;5034331;28;20022;-65
2023/05/06 02:58:03;;;;;;;2.00;1.70;;;20.30;1.00;;;;;;5031554;28;20060;-65
2023/05/06 03:00:29;;;;;;;1.55;1.40;;;20.30;1.00;;;;;;5032280;28;20514;-65
2023/05/06 03:02:55;;;;;;;1.85;1.70;;;20.30;1.00;;;;;;5034314;28;20025;-66
2023/05/06 03:05:21;;;;;;;2.15;1.60;;;20.30;1.00;;;;;;5033845;28;20475;-66
2023/05/06 03:07:46;;;;;;;2.40;2.00;;;20.30;1.00;;;;;;5033628;28;20025;-66
2023/05/06 03:10:12;;;;;;;3.80;2.00;;;20.30;1.00;;;;;;5034303;28;20025;-65
2023/05/06 03:12:38;;;;;;;3.35;1.60;;;20.30;1.00;;;;;;5032379;28;20068;-66
2023/05/06 03:15:04;;;;;;;3.25;1.98;;;20.30;1.00;;;;;;5024243;28;20026;-66
2023/05/06 03:17:30;;;;;;;2.28;2.08;;;20.30;1.00;;;;;;5033283;28;20043;-66
2023/05/06 03:19:56;;;;;;;2.03;1.75;;;20.20;1.00;;;;;;5032609;28;20137;-66
2023/05/06 03:22:21;;;;;;;2.22;1.90;;;20.20;1.00;;;;;;5033719;28;20039;-66
2023/05/06 03:24:47;;;;;;;3.00;2.10;;;20.20;1.00;;;;;;5032651;28;20024;-65
2023/05/06 03:27:12;;;;;;;1.98;1.88;;;20.20;1.00;;;;;;5033318;28;20448;-66
2023/05/06 03:29:38;;;;;;;4.57;1.98;;;20.20;1.00;;;;;;5033791;28;20529;-65
2023/05/06 03:32:04;;;;;;;1.95;1.80;;;20.20;1.00;;;;;;5033364;28;20029;-65
2023/05/06 03:34:30;;;;;;;3.78;2.33;;;20.10;1.00;;;;;;5033072;28;20111;-65
2023/05/06 03:36:56;;;;;;;2.20;1.85;;;20.10;1.00;;;;;;5033000;28;20506;-65
2023/05/06 03:39:22;;;;;;;2.17;1.85;;;20.10;1.00;;;;;;5032155;28;20079;-65
2023/05/06 03:41:48;;;;;;;3.70;2.05;;;20.00;1.00;;;;;;5033511;28;20079;-66
2023/05/06 03:44:14;;;;;;;2.72;1.98;;;20.00;1.00;;;;;;5031781;28;20483;-65
2023/05/06 03:46:40;;;;;;;2.35;2.15;;;20.00;1.00;;;;;;5030520;28;20040;-65
2023/05/06 03:49:06;;;;;;;2.08;1.98;;;20.00;1.00;;;;;;5033348;28;20361;-65
2023/05/06 03:51:32;;;;;;;2.65;2.20;;;20.00;1.00;;;;;;5032692;28;20025;-65
2023/05/06 03:53:58;;;;;;;2.10;1.85;;;20.00;1.00;;;;;;5025027;28;20076;-65
2023/05/06 03:56:24;;;;;;;2.45;1.70;;;20.10;1.00;;;;;;5033285;28;20485;-65
2023/05/06 03:58:50;;;;;;;2.05;1.80;;;20.00;1.00;;;;;;5032610;28;20033;-65
2023/05/06 04:01:17;;;;;;;3.78;2.17;;;20.00;1.00;;;;;;5033428;28;20033;-65
2023/05/06 04:03:43;;;;;;;4.35;2.15;;;19.90;1.00;;;;;;5032328;28;20036;-65
2023/05/06 04:06:09;;;;;;;1.73;1.52;;;19.90;1.00;;;;;;5033448;28;20426;-65
2023/05/06 04:08:35;;;;;;;2.15;1.80;;;19.90;1.00;;;;;;5029513;28;20025;-65
2023/05/06 04:11:05;;;;;;;3.67;2.17;;;19.90;1.00;;;;;;5033117;28;20079;-65
2023/05/06 04:13:31;;;;;;;3.20;1.75;;;19.90;1.00;;;;;;5032254;28;20537;-65
2023/05/06 04:15:57;;;;;;;3.47;2.33;;;20.00;1.00;;;;;;5033101;28;20029;-66
2023/05/06 04:18:23;;;;;;;5.57;2.22;;;19.90;1.00;;;;;;5030656;28;20392;-65
2023/05/06 04:20:49;;;;;;;3.17;1.90;;;19.90;1.00;;;;;;5023136;28;20048;-65
2023/05/06 04:23:15;;;;;;;3.17;1.60;;;19.80;1.00;;;;;;5031251;28;20029;-65
2023/05/06 04:25:47;;;;;;;2.33;1.70;;;19.80;1.00;;;;;;5032527;28;20116;-65
2023/05/06 04:28:15;;;;;;;2.20;1.90;;;19.80;1.00;;;;;;5030050;28;20427;-65
2023/05/06 04:30:43;;;;;;;5.68;2.28;;;19.90;1.00;;;;;;5033142;28;20075;-65
2023/05/06 04:33:09;;;;;;;2.75;1.77;;;19.90;1.00;;;;;;5032112;28;20021;-65
2023/05/06 04:35:35;;;;;;;2.05;1.80;;;19.90;1.00;;;;;;5032762;28;20037;-65
2023/05/06 04:38:01;;;;;;;3.92;2.00;;;19.80;1.00;;;;;;5031393;28;20022;-66
2023/05/06 04:40:27;;;;;;;2.20;1.90;;;19.70;1.00;;;;;;5032450;28;20057;-65
2023/05/06 04:42:53;;;;;;;3.40;2.00;;;19.80;1.00;;;;;;5030339;28;20411;-65
2023/05/06 04:45:18;;;;;;;2.75;1.52;;;19.70;1.00;;;;;;5032238;28;20520;-66
2023/05/06 04:47:44;;;;;;;2.67;1.55;;;19.70;1.00;;;;;;5032741;28;20545;-66
2023/05/06 04:50:10;;;;;;;2.92;1.60;;;19.70;1.00;;;;;;5033872;28;20056;-66
2023/05/06 04:52:36;;;;;;;4.38;1.80;;;19.70;1.00;;;;;;5030070;28;20051;-65
2023/05/06 04:55:02;;;;;;;3.15;2.00;;;19.70;1.00;;;;;;5035928;28;20527;-66
2023/05/06 04:57:30;;;;;;;2.55;1.60;;;19.70;1.00;;;;;;5034341;28;20033;-65
2023/05/06 04:59:55;;;;;;;3.50;1.98;;;19.70;1.00;;;;;;5036664;28;20543;-66
2023/05/06 05:02:21;;;;;;;2.97;2.00;;;19.80;1.00;;;;;;5035565;28;20129;-65
2023/05/06 05:04:47;;;;;;;2.70;1.80;;;19.80;1.00;;;;;;5036694;28;20455;-66
2023/05/06 05:07:12;;;;;;;9.20;2.03;;;19.80;1.00;;;;;;5035785;28;20484;-66
2023/05/06 05:09:38;;;;;;;2.58;2.03;;;19.80;1.00;;;;;;5035544;28;20057;-66
2023/05/06 05:12:04;;;;;;;2.03;1.83;;;19.90;1.00;;;;;;5027745;28;20026;-66
2023/05/06 05:14:29;;;;;;;6.43;2.40;;;19.90;1.00;;;;;;5035635;28;20045;-66
2023/05/06 05:16:55;;;;;;;5.85;2.50;;;19.90;1.00;;;;;;5036380;28;20025;-65
2023/05/06 05:19:21;;;;;;;4.55;2.38;;;19.90;1.00;;;;;;5034536;28;20030;-66
2023/05/06 05:21:47;;;;;;;4.72;2.08;;;19.90;1.00;;;;;;5035488;28;20045;-66
2023/05/06 05:24:13;;;;;;;5.43;2.10;;;19.90;1.00;;;;;;5036468;28;20025;-66
2023/05/06 05:26:38;;;;;;;2.97;2.45;;;20.00;1.00;;;;;;5033982;28;20037;-67
2023/05/06 05:29:05;;;;;;;2.10;1.90;;;20.00;1.00;;;;;;5035104;28;20065;-65
2023/05/06 05:31:31;;;;;;;3.75;1.80;;;20.00;1.00;;;;;;5035895;28;20036;-66
2023/05/06 05:33:56;;;;;;;6.25;2.15;;;20.10;1.00;;;;;;5035562;28;20029;-65
2023/05/06 05:36:22;;;;;;;3.67;1.98;;;20.10;1.00;;;;;;5036223;28;20029;-66
2023/05/06 05:38:49;;;;;;;3.67;2.35;;;20.10;1.00;;;;;;5030997;28;20394;-65
2023/05/06 05:41:15;;;;;;;2.63;2.05;;;20.20;1.00;;;;;;5036012;28;20087;-66
2023/05/06 05:43:40;;;;;;;4.78;2.10;;;20.20;1.00;;;;;;5035126;28;20045;-65
2023/05/06 05:46:06;;;;;;;4.47;1.75;;;20.20;1.00;;;;;;5027486;28;20076;-66
2023/05/06 05:48:32;;;;;;;3.60;1.90;;;20.20;1.00;;;;;;5034960;28;20033;-66
2023/05/06 05:51:00;;;;;;;2.42;1.83;;;20.20;1.00;;;;;;5035309;28;20026;-65
2023/05/06 05:53:26;;;;;;;3.22;1.73;;;20.20;1.00;;;;;;5035933;28;20414;-66
2023/05/06 05:55:52;;;;;;;3.22;2.67;;;20.20;1.00;;;;;;5035078;28;20028;-66
2023/05/06 05:58:17;;;;;;;2.83;2.17;;;20.30;1.00;;;;;;5034988;28;20467;-65
2023/05/06 06:00:43;;;;;;;2.00;1.90;;;20.20;1.00;;;;;;5035307;28;20117;-65
2023/05/06 06:03:09;;;;;;;1.98;1.73;;;20.20;1.00;;;;;;5033227;28;20031;-66
2023/05/06 06:05:34;;;;;;;3.28;1.77;;;20.30;1.00;;;;;;5035544;28;20184;-65
2023/05/06 06:08:00;;;;;;;2.50;1.95;;;20.30;1.00;;;;;;5033277;28;20018;-65
2023/05/06 06:10:26;;;;;;;4.10;2.25;;;20.30;1.00;;;;;;5034948;28;20034;-66
2023/05/06 06:12:51;;;;;;;17.17;3.63;;;20.30;1.00;;;;;;5034452;28;20398;-66
2023/05/06 06:15:17;;;;;;;3.22;2.33;;;20.30;1.00;;;;;;5034118;28;20022;-65
2023/05/06 06:17:43;;;;;;;3.20;1.55;;;20.30;1.00;;;;;;5034451;28;20021;-66
2023/05/06 06:20:09;;;;;;;2.75;1.33;;;20.30;1.00;;;;;;5035250;28;20023;-65
2023/05/06 06:22:34;;;;;;;2.17;1.73;;;20.30;1.00;;;;;;5033372;28;20026;-65
2023/05/06 06:25:00;;;;;;;3.03;1.80;;;20.30;1.00;;;;;;5035305;28;20030;-66
2023/05/06 06:27:26;;;;;;;1.88;1.60;;;20.30;1.00;;;;;;5034499;28;20022;-66
2023/05/06 06:29:51;;;;;;;2.25;1.67;;;20.30;1.00;;;;;;5033159;28;20025;-66
2023/05/06 06:32:18;;;;;;;4.28;1.80;;;20.40;1.00;;;;;;5030766;28;20052;-66
2023/05/06 06:34:44;;;;;;;1.48;1.27;;;20.40;1.00;;;;;;5032897;28;20029;-66
2023/05/06 06:37:10;;;;;;;2.60;1.20;;;20.40;1.00;;;;;;5034000;28;20022;-66
2023/05/06 06:39:36;;;;;;;3.03;1.38;;;20.40;1.00;;;;;;5034716;28;20412;-66
2023/05/06 06:42:05;;;;;;;4.90;1.67;;;20.40;1.00;;;;;;5032475;28;20037;-66
2023/05/06 06:44:33;;;;;;;2.00;1.45;;;20.40;1.00;;;;;;5032535;28;20029;-66
2023/05/06 06:46:58;;;;;;;1.58;1.42;;;20.50;1.00;;;;;;5033894;28;20538;-66
2023/05/06 06:49:26;;;;;;;2.53;1.33;;;20.50;1.00;;;;;;5034687;28;20120;-66
2023/05/06 06:51:51;;;;;;;2.70;2.40;;;20.40;1.00;;;;;;5033647;28;20029;-66
2023/05/06 06:54:17;;;;;;;2.92;1.52;;;20.50;1.00;;;;;;5034736;28;20025;-66
2023/05/06 06:56:42;;;;;;;3.53;2.05;;;20.50;1.00;;;;;;5033269;28;20037;-66
2023/05/06 06:59:08;;;;;;;2.85;1.75;;;20.50;1.00;;;;;;5033565;28;20030;-66
2023/05/06 07:01:34;;;;;;;2.10;1.80;;;20.50;1.00;;;;;;5034308;28;20091;-66
2023/05/06 07:03:59;;;;;;;2.33;2.10;;;20.50;1.00;;;;;;5033135;28;20030;-66
2023/05/06 07:06:25;;;;;;;2.80;1.95;;;20.50;1.00;;;;;;5034327;28;20045;-66
2023/05/06 07:08:51;;;;;;;2.13;1.92;;;20.50;1.00;;;;;;5033823;28;20467;-66
2023/05/06 07:11:16;;;;;;;2.47;2.08;;;20.50;1.00;;;;;;5034171;28;20033;-66
2023/05/06 07:13:42;;;;;;;3.58;2.00;;;20.50;1.00;;;;;;5031638;28;20026;-66
2023/05/06 07:16:07;;;;;;;2.25;1.77;;;20.60;1.00;;;;;;5034045;28;20033;-66
2023/05/06 07:18:33;;;;;;;3.30;2.42;;;20.60;1.00;;;;;;5033510;28;20487;-66
2023/05/06 07:20:59;;;;;;;2.40;2.20;;;20.70;1.00;;;;;;5033838;28;20132;-66
2023/05/06 07:23:24;;;;;;;4.68;1.85;;;20.70;1.00;;;;;;5033207;28;20049;-66
2023/05/06 07:25:50;;;;;;;3.47;2.30;;;20.70;1.00;;;;;;5026127;28;20037;-66
2023/05/06 07:28:16;;;;;;;1.45;1.35;;;20.70;1.00;;;;;;5029117;28;20037;-66
2023/05/06 07:30:41;;;;;;;2.55;1.80;;;20.70;1.00;;;;;;5023389;28;20483;-66
2023/05/06 07:33:07;;;;;;;2.88;1.80;;;20.70;1.00;;;;;;5032445;28;20037;-66
2023/05/06 07:35:32;;;;;;;4.28;2.13;;;20.70;1.00;;;;;;5033888;28;20080;-66
2023/05/06 07:37:58;;;;;;;2.45;1.80;;;20.80;1.00;;;;;;5032312;28;20386;-66
2023/05/06 07:40:24;;;;;;;2.08;1.80;;;20.80;1.00;;;;;;5033283;28;20049;-67
2023/05/06 07:42:50;;;;;;;4.03;1.92;;;20.80;1.00;;;;;;5032094;28;20034;-66
2023/05/06 07:45:16;;;;;;;5.15;2.20;;;20.80;1.00;;;;;;5033571;28;20020;-66
2023/05/06 07:47:41;;;;;;;3.65;2.65;;;20.80;1.00;;;;;;5031935;28;20029;-66
2023/05/06 07:50:07;;;;;;;2.65;2.45;;;20.90;1.00;;;;;;5033345;28;20087;-66
2023/05/06 07:52:33;;;;;;;4.35;2.47;;;20.90;1.00;;;;;;5032839;28;20029;-66
2023/05/06 07:54:59;;;;;;;2.75;2.55;;;20.90;1.00;;;;;;5032082;28;20384;-66
2023/05/06 07:57:24;;;;;;;4.75;3.00;;;20.90;1.00;;;;;;5031980;28;20104;-66
2023/05/06 07:59:51;;;;;;;7.55;3.28;;;20.90;1.00;;;;;;5031927;28;20051;-66
2023/05/06 08:02:17;;;;;;;6.20;3.30;;;21.00;1.00;;;;;;5032812;28;20044;-66
2023/05/06 08:04:43;;;;;;;4.38;2.90;;;21.00;1.00;;;;;;5044091;28;20033;-66
2023/05/06 08:07:10;;;;;;;6.00;2.78;;;21.10;1.00;;;;;;5046802;28;20024;-66
2023/05/06 08:09:35;;;;;;;4.10;3.22;;;21.10;1.00;;;;;;5029273;28;20037;-66
2023/05/06 08:12:01;;;;;;;4.10;3.15;;;21.20;1.00;;;;;;5036215;28;20029;-66
2023/05/06 08:14:27;;;;;;;5.43;3.92;;;21.20;1.00;;;;;;5032077;28;20041;-66
2023/05/06 08:16:53;;;;;;;5.13;3.13;;;21.20;1.00;;;;;;5032524;28;20392;-66
2023/05/06 08:19:20;;;;;;;4.30;3.90;;;21.30;1.00;;;;;;5032208;28;20030;-66
2023/05/06 08:21:47;;;;;;;4.20;3.22;;;21.30;1.00;;;;;;5046817;28;20033;-66
2023/05/06 08:24:12;;;;;;;4.20;3.50;;;21.40;1.00;;;;;;5032216;28;20061;-66
2023/05/06 08:26:38;;;;;;;5.00;3.15;;;21.50;1.00;;;;;;5030357;28;20537;-65
2023/05/06 08:29:04;;;;;;;4.38;3.78;;;21.50;1.00;;;;;;5030872;28;20025;-66
2023/05/06 08:31:29;;;;;;;3.65;3.35;;;21.50;1.00;;;;;;5031887;28;20368;-66
2023/05/06 08:33:55;;;;;;;7.53;3.28;;;21.50;1.00;;;;;;5030922;28;20021;-67
2023/05/06 08:36:21;;;;;;;5.28;4.18;;;21.60;1.00;;;;;;5033062;28;20030;-66
2023/05/06 08:38:49;;;;;;;4.72;4.00;;;21.60;1.00;;;;;;5039315;28;20056;-66
2023/05/06 08:41:18;;;;;;;4.47;4.10;;;21.60;1.00;;;;;;5030833;28;20111;-66
2023/05/06 08:43:46;;;;;;;5.20;4.13;;;21.70;1.00;;;;;;5031826;28;20034;-67
2023/05/06 08:46:12;;;;;;;6.00;4.72;;;21.70;1.00;;;;;;5032059;28;20491;-66
2023/05/06 08:48:38;;;;;;;4.28;3.88;;;21.80;1.00;;;;;;5031956;28;20026;-67
2023/05/06 08:51:04;;;;;;;7.70;4.22;;;21.80;1.00;;;;;;5032665;28;20025;-66
2023/05/06 08:53:32;;;;;;;5.97;4.38;;;21.90;1.00;;;;;;5030626;28;20438;-66
2023/05/06 08:56:05;;;;;;;4.20;3.58;;;21.90;1.00;;;;;;5032717;28;20427;-67
2023/05/06 08:58:36;;;;;;;7.53;4.55;;;21.90;1.00;;;;;;5029966;28;20022;-66
2023/05/06 09:01:03;;;;;;;6.65;4.47;;;22.00;1.00;;;;;;5032599;28;20029;-65
2023/05/06 09:03:29;;;;;;;5.55;4.22;;;22.00;1.00;;;;;;5031726;28;20480;-65
2023/05/06 09:05:56;;;;;;;5.90;5.20;;;22.10;1.00;;;;;;5029819;28;20387;-65
2023/05/06 09:08:22;;;;;;;5.43;4.90;;;22.10;1.00;;;;;;5029936;28;20119;-64
2023/05/06 09:10:48;;;;;;;7.25;5.10;;;22.10;1.00;;;;;;5031447;28;20475;-65
2023/05/06 09:13:16;;;;;;;5.68;4.82;;;22.20;1.00;;;;;;5042513;28;20075;-63
2023/05/06 09:15:43;;;;;;;9.00;5.50;;;22.20;1.00;;;;;;5030946;28;20089;-61
2023/05/06 09:18:10;;;;;;;5.20;4.70;;;22.30;1.00;;;;;;5030327;28;20037;-64
2023/05/06 09:20:40;;;;;;;6.90;6.25;;;22.40;1.00;;;;;;5032685;28;20095;-64
2023/05/06 09:23:08;;;;;;;7.00;5.97;;;22.40;1.00;;;;;;5030879;28;20120;-64
2023/05/06 09:25:35;;;;;;;7.32;5.60;;;22.40;1.00;;;;;;5032121;28;20044;-64
2023/05/06 09:28:05;;;;;;;6.03;5.50;;;22.50;1.00;;;;;;5031528;28;20025;-64
2023/05/06 09:30:31;;;;;;;5.65;4.97;;;22.60;1.00;;;;;;5032359;28;20061;-64
2023/05/06 09:32:57;;;;;;;6.53;5.85;;;22.60;1.00;;;;;;5031685;28;20502;-64
2023/05/06 09:35:38;;;;;;;6.55;4.65;;;22.70;1.00;;;;;;5030322;28;20372;-62
2023/05/06 09:38:04;;;;;;;4.50;4.10;;;22.70;1.00;;;;;;5032915;28;20061;-62
2023/05/06 09:40:30;;;;;;;6.32;5.78;;;22.70;1.00;;;;;;5034918;28;20045;-62
2023/05/06 09:42:56;;;;;;;9.32;6.13;;;22.80;1.00;;;;;;5034204;28;20125;-63
2023/05/06 09:45:23;;;;;;;5.63;5.13;;;22.80;1.00;;;;;;5034229;28;20041;-63
2023/05/06 09:47:49;;;;;;;6.97;5.90;;;22.80;1.00;;;;;;5026498;28;20037;-63
2023/05/06 09:50:15;;;;;;;8.48;6.70;;;23.00;1.00;;;;;;5036010;28;20024;-63
2023/05/06 09:52:45;;;;;;;8.93;6.72;;;23.00;1.00;;;;;;5033270;28;20450;-63
2023/05/06 09:55:10;;;;;;;12.90;6.88;;;23.10;1.00;;;;;;5036069;28;20018;-63
2023/05/06 09:57:37;;;;;;;18.55;6.85;;;23.20;1.00;;;;;;5034116;28;20037;-60
2023/05/06 10:00:06;;;;;;;7.05;6.13;;;23.20;1.00;;;;;;5035450;28;20498;-61
2023/05/06 10:02:32;;;;;;;7.07;5.57;;;23.20;1.00;;;;;;5034641;28;20029;-61
2023/05/06 10:04:58;;;;;;;7.53;6.78;;;23.30;1.00;;;;;;5035435;28;20021;-64
2023/05/06 10:07:34;;;;;;;9.30;6.50;;;23.40;1.00;;;;;;5033996;28;20041;-63
2023/05/06 10:10:02;;;;;;;7.10;5.60;;;23.50;1.00;;;;;;5034467;28;20483;-64
2023/05/06 10:12:28;;;;;;;6.55;5.95;;;23.50;1.00;;;;;;5043801;28;20048;-63
2023/05/06 10:14:54;;;;;;;6.65;5.45;;;23.50;1.00;;;;;;5034130;28;20471;-63
2023/05/06 10:17:24;;;;;;;5.80;5.22;;;23.60;1.00;;;;;;5034460;28;20029;-63
2023/05/06 10:19:54;;;;;;;6.55;5.28;;;23.60;1.00;;;;;;5035275;28;20485;-64
2023/05/06 10:22:32;;;;;;;7.75;6.13;;;23.70;1.00;;;;;;5033325;28;20033;-64
2023/05/06 10:25:03;;;;;;;7.65;5.75;;;23.80;1.00;;;;;;5033633;28;20105;-64
2023/05/06 10:27:31;;;;;;;5.53;4.65;;;23.70;1.00;;;;;;5034171;28;20055;-64
2023/05/06 10:29:59;;;;;;;6.75;6.15;;;23.90;1.00;;;;;;5034833;28;20025;-62
2023/05/06 10:32:30;;;;;;;8.20;6.18;;;24.00;1.00;;;;;;5034195;28;20099;-62
2023/05/06 10:35:00;;;;;;;8.65;6.30;;;24.10;1.00;;;;;;5034864;28;20033;-62
2023/05/06 10:37:28;;;;;;;6.15;5.63;;;24.20;1.00;;;;;;5032253;28;20041;-61
2023/05/06 10:39:55;;;;;;;10.65;5.80;;;24.30;1.00;;;;;;5034596;28;20045;-62
2023/05/06 10:42:26;;;;;;;7.00;6.38;;;24.30;1.00;;;;;;5032789;28;20448;-62
2023/05/06 10:44:59;;;;;;;6.68;6.00;;;24.40;1.00;;;;;;5027910;28;20048;-62
2023/05/06 10:47:25;;;;;;;6.65;6.05;;;24.50;1.00;;;;;;5032194;28;20029;-62
2023/05/06 10:50:23;;;;;;;8.43;4.85;;;24.60;1.00;;;;;;5028389;28;20033;-62
2023/05/06 10:52:57;;;;;;;8.15;6.15;;;24.60;1.00;;;;;;5024242;28;20395;-62
2023/05/06 10:55:27;;;;;;;6.38;5.20;;;24.70;1.00;;;;;;5032461;28;20021;-62
2023/05/06 10:57:55;;;;;;;7.18;6.45;;;24.80;1.00;;;;;;5032817;28;20026;-62
2023/05/06 11:00:21;;;;;;;6.93;6.03;;;24.90;1.00;;;;;;5033454;28;20419;-62
2023/05/06 11:02:55;;;;;;;7.78;6.93;;;25.10;1.00;;;;;;5034299;28;20113;-62
2023/05/06 11:05:22;;;;;;;7.40;6.53;;;25.20;1.00;;;;;;5032457;28;20036;-62
2023/05/06 11:07:51;;;;;;;6.45;5.85;;;25.20;1.00;;;;;;5032582;28;20043;-63
2023/05/06 11:10:31;;;;;;;7.20;6.50;;;25.40;1.00;;;;;;5034305;28;20029;-62
2023/05/06 11:12:57;;;;;;;8.10;6.30;;;25.60;1.00;;;;;;5043436;28;20367;-63
2023/05/06 11:15:35;;;;;;;9.63;7.28;;;25.70;1.00;;;;;;5034207;28;20044;-62
2023/05/06 11:18:23;;;;;;;9.75;6.82;;;25.80;1.00;;;;;;5033477;28;20030;-62
2023/05/06 11:20:50;;;;;;;6.93;5.72;;;25.90;1.00;;;;;;5034192;28;20134;-63
2023/05/06 11:23:19;;;;;;;7.65;5.50;;;26.00;1.00;;;;;;5032029;28;20552;-62
2023/05/06 11:25:48;;;;;;;15.90;6.88;;;26.00;1.00;;;;;;5034199;28;20021;-63
2023/05/06 11:28:14;;;;;;;6.10;5.30;;;26.30;1.00;;;;;;5033157;28;20025;-62
2023/05/06 11:30:42;;;;;;;5.50;5.00;;;26.50;1.00;;;;;;5032034;28;20028;-62
2023/05/06 11:33:13;;;;;;;6.60;5.80;;;26.60;1.00;;;;;;5033028;28;20085;-62
2023/05/06 11:35:38;;;;;;;6.72;5.18;;;26.70;1.00;;;;;;5033832;28;20051;-60
2023/05/06 11:38:04;;;;;;;6.07;5.55;;;26.80;1.00;;;;;;5032924;28;20471;-60
2023/05/06 11:40:30;;;;;;;6.63;6.00;;;27.20;1.00;;;;;;5033660;28;20395;-61
2023/05/06 11:43:15;;;;;;;7.32;6.63;;;27.50;1.00;;;;;;5032326;28;20048;-61
2023/05/06 11:45:47;;;;;;;5.97;5.38;;;28.00;1.00;;;;;;5021252;28;20479;-61
2023/05/06 11:48:17;;;;;;;6.05;5.45;;;28.50;1.00;;;;;;5033309;28;20140;-61
2023/05/06 11:50:49;;;;;;;7.00;6.30;;;29.30;1.00;;;;;;5033553;28;20028;-61
2023/05/06 11:53:21;;;;;;;7.30;6.63;;;31.40;99.90;;;;;;5032885;28;20033;-61
2023/05/06 11:55:49;;;;;;;8.13;6.50;;;33.30;99.90;;;;;;5020176;28;20021;-61
2023/05/06 11:58:16;;;;;;;6.72;5.80;;;33.80;99.90;;;;;;5031958;28;20087;-61
2023/05/06 12:00:50;;;;;;;8.95;7.93;;;35.50;99.90;;;;;;5031815;28;20069;-61
2023/05/06 12:03:17;;;;;;;8.38;6.60;;;37.20;99.90;;;;;;5032613;28;20052;-61
2023/05/06 12:05:43;;;;;;;7.55;6.90;;;39.50;99.90;;;;;;5033284;28;20018;-61
2023/05/06 12:08:10;;;;;;;10.65;8.77;;;40.10;99.90;;;;;;5032695;28;20478;-61
2023/05/06 12:10:36;;;;;;;7.28;6.57;;;40.20;99.90;;;;;;5033175;28;20033;-61
2023/05/06 12:13:04;;;;;;;7.45;6.28;;;41.00;99.90;;;;;;5035886;28;20530;-61
2023/05/06 12:15:30;;;;;;;6.18;5.70;;;42.50;99.90;;;;;;5032734;28;20021;-61
2023/05/06 12:17:56;;;;;;;7.15;6.65;;;43.70;99.90;;;;;;5022363;28;20041;-61
2023/05/06 12:20:22;;;;;;;7.22;5.72;;;44.00;99.90;;;;;;5031824;28;20360;-61
2023/05/06 12:23:11;;;;;;;8.52;7.82;;;44.00;99.90;;;;;;5032928;28;20044;-61
2023/05/06 12:25:37;;;;;;;8.70;7.80;;;43.10;99.90;;;;;;5029943;28;20063;-61
2023/05/06 12:28:17;;;;;;;7.65;7.05;;;42.90;99.90;;;;;;5032125;28;20084;-61
2023/05/06 12:30:43;;;;;;;7.72;6.95;;;41.70;99.90;;;;;;5032889;28;20029;-61
2023/05/06 12:33:10;;;;;;;7.35;6.85;;;40.50;99.90;;;;;;5031919;28;20032;-61
2023/05/06 12:35:36;;;;;;;7.22;6.63;;;39.00;99.90;;;;;;5031352;28;20029;-61
2023/05/06 12:38:09;;;;;;;5.95;5.43;;;38.00;99.90;;;;;;5032809;28;20034;-62
2023/05/06 12:40:35;;;;;;;6.88;6.28;;;38.10;99.90;;;;;;5031841;28;20414;-61
2023/05/06 12:43:00;;;;;;;7.80;5.88;;;38.20;99.90;;;;;;5033068;28;20029;-61
2023/05/06 12:45:26;;;;;;;7.63;7.13;;;38.90;99.90;;;;;;5031096;28;20494;-61
2023/05/06 12:47:57;;;;;;;7.15;6.65;;;39.50;99.90;;;;;;5032171;28;20021;-61
2023/05/06 12:50:37;;;;;;;7.65;7.05;;;39.50;99.90;;;;;;5032986;28;20395;-61
2023/05/06 12:53:04;;;;;;;9.82;9.02;;;40.20;99.90;;;;;;5031008;28;20025;-61
2023/05/06 12:55:31;;;;;;;9.57;8.63;;;40.30;99.90;;;;;;5032706;28;20029;-60